• Join FlightAware (Why Join?)
  • Login
  • US Flag 
08:44PM EST


 

Airport Tracker/Info


-or-


 

Live Flight TrackerFlight Track Log ✈ ASQ4540 ✈ 20-Jun-2013 ✈ KPNS - KIAH

Flight Track Log - Related Links

Times and Time Zones

All times are in EDT time to prevent confusion due to time zone crossing. See the ASQ4540 flight status page for this flight to view local times or setup timezone preferences in your user account.

Time Position Orientation Groundspeed Altitude Reporting Facility
EDT Latitude Longitude Course Direction KTS MPH feet Rate Location/Type
10:50PM 30.3583 -87.2664 268° West 279 321 6,500  Level Jacksonville Center
10:51PM 30.5559 -87.6014 285° West  Level FlightAware Approximate
10:52PM 30.5761 -87.7016 282° West  Level FlightAware Approximate
10:52PM 30.4186 -87.4281 293° West 279 321 11,000  Level Houston Center
10:53PM 30.5944 -87.8024 282° West  Level FlightAware Approximate
10:53PM 30.4531 -87.5308 291° West 333 383 11,800  Level Houston Center
10:54PM 30.6139 -87.9029 283° West  Level FlightAware Approximate
10:54PM 30.4892 -87.6403 291° West 357 411 13,300  Level Houston Center
10:55PM 30.5328 -87.7711 291° West 362 417 15,100 1,620 Climbing Houston Center
10:56PM 30.5694 -87.8817 291° West 364 419 16,600 1,320 Climbing Houston Center
10:57PM 30.6047 -87.9928 290° West 366 421 17,900 1,320 Climbing Houston Center
10:58PM 30.6422 -88.1036 291° West 369 425 19,400 1,440 Climbing Houston Center
10:59PM 30.6778 -88.2144 290° West 366 421 20,900 1,500 Climbing Houston Center
11:00PM 30.7144 -88.3261 291° West 367 422 22,500 1,500 Climbing Houston Center
11:02PM 30.7183 -88.4442 272° West 370 426 24,000 1,380 Climbing Houston Center
11:03PM 30.7108 -88.5564 266° West 367 422 25,400 1,440 Climbing Houston Center
11:04PM 30.7017 -88.6803 265° West 365 420 27,000 1,260 Climbing Houston Center
11:05PM 30.6928 -88.7978 265° West 364 419 28,000 480 Climbing Houston Center
11:06PM 30.6819 -88.9428 265° West 398 458 28,000  Level Houston Center
11:07PM 30.6719 -89.0797 265° West 425 489 28,000  Level Houston Center
11:08PM 30.6617 -89.2222 265° West 442 509 28,000  Level Houston Center
11:09PM 30.6503 -89.3678 265° West 452 520 28,000  Level Houston Center
11:10PM 30.6394 -89.5139 265° West 457 526 28,000  Level Houston Center
11:11PM 30.6286 -89.6594 265° West 459 528 28,000  Level Houston Center
11:12PM 30.6172 -89.8042 265° West 458 527 28,000  Level Houston Center
11:13PM 30.6025 -89.9783 264° West 460 529 28,000  Level Houston Center
11:14PM 30.5900 -90.1236 264° West 459 528 28,000  Level Houston Center
11:15PM 30.5769 -90.2686 264° West 457 526 28,000  Level Houston Center
11:16PM 30.5639 -90.4147 264° West 458 527 28,000  Level Houston Center
11:17PM 30.5528 -90.5606 265° West 457 526 28,000  Level Houston Center
11:18PM 30.5383 -90.7081 264° West 461 531 28,000  Level Houston Center
11:19PM 30.5297 -90.8542 266° West 457 526 28,000  Level Houston Center
11:20PM 30.5175 -91.0000 264° West 456 525 28,000  Level Houston Center
11:21PM 30.5053 -91.1464 265° West 456 525 28,000  Level Houston Center
11:22PM 30.4906 -91.3231 265° West 460 529 28,000  Level Houston Center
11:23PM 30.4783 -91.4564 264° West 459 528 28,000  Level Houston Center
11:24PM 30.4644 -91.6186 264° West 462 532 28,000  Level Houston Center
11:25PM 30.4525 -91.7553 264° West 465 535 28,000  Level Houston Center
11:26PM 30.4400 -91.9031 264° West 462 532 28,000  Level Houston Center
11:27PM 30.4258 -92.0519 264° West 461 531 28,000  Level Houston Center
11:28PM 30.4100 -92.2311 264° West 464 534 28,000  Level Houston Center
11:29PM 30.3972 -92.3794 264° West 464 534 28,000  Level Houston Center
11:30PM 30.3842 -92.5267 264° West 462 532 28,000  Level Houston Center
11:31PM 30.3697 -92.6736 264° West 461 531 28,000  Level Houston Center
11:32PM 30.3550 -92.8194 263° West 460 529 28,000  Level Houston Center
11:33PM 30.3411 -92.9650 264° West 457 526 28,000  Level Houston Center
11:34PM 30.3269 -93.1097 264° West 454 522 28,000  Level Houston Center
11:35PM 30.3122 -93.2553 263° West 454 522 28,000 -60 Level Houston Center
11:36PM 30.2964 -93.4014 263° West 454 522 27,900 -1,200 Descending Houston Center
11:37PM 30.2822 -93.5561 264° West 459 528 25,600 -2,460 Descending Houston Center
11:38PM 30.2672 -93.7044 263° West 460 529 23,000 -2,580 Descending Houston Center
11:39PM 30.2525 -93.8464 263° West 446 513 20,400 -2,520 Descending Houston Center
11:40PM 30.2383 -93.9828 263° West 432 497 17,900 -2,460 Descending Houston Center
11:41PM 30.2233 -94.1183 263° West 428 493 15,400 -2,460 Descending Houston Center
11:42PM 30.2069 -94.2442 261° West 401 461 12,900 -1,920 Descending Houston Center
11:43PM 30.1750 -94.3556 252° West 371 427 11,600 -1,260 Descending Houston Center
11:44PM 30.1461 -94.4492 250° West 317 365 10,400 -1,380 Descending Houston Center
11:45PM 30.1192 -94.5369 250° West 287 330 8,800 -1,380 Descending Houston Center
11:46PM 30.0939 -94.6194 251° West 277 319 7,600 -1,320 Descending Houston Center
11:47PM 30.0692 -94.7028 251° West 275 316 6,200 -1,320 Descending Houston Center
11:48PM 30.0439 -94.7833 250° West 268 308 5,000 -1,140 Descending Houston Center
11:49PM 30.0150 -94.8789 251° West 264 304 4,000 -540 Descending Houston Center
11:50PM 29.9903 -94.9575 250° West 263 303 4,000  Level Houston Center
11:51PM 29.9775 -95.0378 260° West 271 312 4,000 -480 Level Houston Center
11:52PM 29.9769 -95.1222 270° West 250 288 3,100 -900 Descending Houston Center